Terminal Aerodrome Forecast
Issued by NWS

Home | Current Version | Previous Version | Text Only | Print | Product List | Glossary On
Versions: 1 2 3 4 5 6 7 8 9 10 11 12 13 14 15
000
FTUS41 KPBZ 031127
TAFFKL
TAF
KFKL 031127Z 0312/0412 21008KT P6SM BKN100 OVC200
     FM031500 22011G18KT P6SM VCSH BKN050
     FM031700 23012G20KT 6SM -SHRA BKN040
     FM032300 25008KT P6SM BKN040
     FM040500 25004KT P6SM SCT040
      AMD LTD TO CLD VIS AND WIND=

USA.gov is the U.S. government's official web portal to all federal, state and local government web resources and services.